Latest Coastal Weather Observations for Mandurah

IDW60701

Issued at 5:45 pm WST Monday 20 October 2014 (issued every 10 minutes, with the page automatically refreshed every 10 minutes)

About coastal observations | Map of coastal stations | Coastal observations for WA | Marine services | Other Formats
Station Details ID: 009977 Name: MANDURAH Lat: -32.52 Lon: 115.71 Height: 3.0 m
Data from the previous 72 hours. | See also: Recent months at Mandurah
Date/Time
WST
Temp

°C
Wind Pressure Rain
since 9am
mm
Weather Cloud Vis
km
Sea
Height
m
Swell
Dir
 
Speed
knots
Gust
knots
hPa Trend Height
m
Period
s
Dir
20/05:30pm 18.1 S 11 15 1019.2 - 0.0 - - - - - - -
20/05:00pm 18.9 SW 10 18 1019.3 - 0.0 - - - - - - -
20/04:30pm 18.7 SSW 11 18 1019.1 - 0.0 - - - - - - -
20/04:00pm 19.7 SW 11 19 1019.0 - 0.0 - - - - - - -
20/03:30pm 19.8 SW 11 15 1018.7 - 0.0 - - - - - - -
20/03:00pm 19.3 SW 11 16 1018.5 - 0.0 - - - - - - -
20/02:30pm 19.3 WSW 11 16 1018.5 - 0.0 - - - - - - -
20/02:00pm 19.8 WSW 11 16 1018.2 - 0.0 - - - - - - -
20/01:30pm 19.7 WSW 11 15 1018.3 - 0.0 - - - - - - -
20/01:00pm 19.0 SW 10 13 1018.3 - 0.0 - - - - - - -
20/12:30pm 20.0 WSW 10 15 1018.0 - 0.0 - - - - - - -
20/12:00pm 19.1 WSW 11 16 1017.9 - 0.0 - - - - - - -
20/11:30am 18.9 WSW 11 18 1017.9 - 0.0 - - - - - - -
20/11:00am 18.1 SSW 10 14 1018.0 - 0.0 - - - - - - -
20/10:30am 18.0 SW 10 17 1017.9 - 0.0 - - - - - - -
20/10:00am 18.1 SSW 8 12 1017.7 - 0.0 - - - - - - -
20/09:30am 17.3 S 9 11 1017.8 - 0.0 - - - - - - -
20/09:00am 17.2 S 8 14 1017.8 - 0.2 - - - - - - -
20/08:30am 16.6 S 5 9 1017.7 - 0.2 - - - - - - -
20/08:00am 15.6 S 3 4 1017.8 - 0.2 - - - - - - -
20/07:30am 14.4 SSE 2 3 1017.6 - 0.2 - - - - - - -
20/07:00am 13.5 SE 2 3 1017.3 - 0.2 - - - - - - -
20/06:30am 13.2 ESE 6 7 1016.8 - 0.2 - - - - - - -
20/06:00am 13.8 SSW 2 2 1016.6 - 0.2 - - - - - - -
20/05:30am 13.4 SSW 1 3 1016.1 - 0.2 - - - - - - -
20/05:00am 13.7 S 4 6 1015.6 - 0.2 - - - - - - -
20/04:30am 13.7 S 5 7 1015.6 - 0.2 - - - - - - -
20/04:00am 13.8 S 5 8 1015.8 - 0.2 - - - - - - -
20/03:30am 14.0 S 8 12 1015.6 - 0.2 - - - - - - -
20/03:00am 14.0 S 6 8 1015.6 - 0.2 - - - - - - -
20/02:30am 13.7 S 6 9 1015.5 - 0.2 - - - - - - -
20/02:00am 13.7 S 6 9 1015.2 - 0.2 - - - - - - -
20/01:30am 13.7 S 7 11 1015.5 - 0.2 - - - - - - -
20/01:00am 13.7 S 8 11 1015.7 - 0.2 - - - - - - -
20/12:30am 13.9 S 9 14 1016.3 - 0.2 - - - - - - -
20/12:00am 13.9 S 10 15 1016.4 - 0.2 - - - - - - -
 
Date/Time
WST
Temp

°C
Wind Pressure Rain
since 9am
mm
Weather Cloud Vis
km
Sea
Height
m
Swell
Dir
 
Speed
knots
Gust
knots
hPa Trend Height
m
Period
s
Dir
19/11:30pm 13.6 S 8 13 1016.5 - 0.2 - - - - - - -
19/11:00pm 13.5 S 8 12 1016.5 - 0.2 - - - - - - -
19/10:30pm 13.6 S 8 13 1016.6 - 0.2 - - - - - - -
19/10:00pm 13.6 S 9 14 1016.5 - 0.0 - - - - - - -
19/09:30pm 13.9 S 9 14 1016.6 - 0.0 - - - - - - -
19/09:00pm 14.1 S 9 14 1016.8 - 0.0 - - - - - - -
19/08:30pm 14.0 S 8 12 1016.6 - 0.0 - - - - - - -
19/08:00pm 14.2 S 8 13 1016.3 - 0.0 - - - - - - -
19/07:30pm 14.5 S 7 12 1016.1 - 0.0 - - - - - - -
19/07:00pm 14.7 S 7 13 1015.7 - 0.0 - - - - - - -
19/06:30pm 15.2 SSE 10 15 1015.3 - 0.0 - - - - - - -
19/06:00pm 15.5 SE 12 16 1014.8 - 0.0 - - - - - - -
19/05:30pm 15.8 SE 12 18 1014.6 - 0.0 - - - - - - -
19/05:00pm 16.2 SSE 13 17 1014.5 - 0.0 - - - - - - -
19/04:30pm 16.0 SE 15 22 1014.3 - 0.0 - - - - - - -
19/04:00pm 15.6 SSE 12 19 1014.3 - 0.0 - - - - - - -
19/03:30pm 15.5 SSE 13 18 1014.3 - 0.0 - - - - - - -
19/03:00pm 15.1 SE 12 18 1014.2 - 0.0 - - - - - - -
19/02:30pm 14.6 SSE 11 16 1014.4 - 0.0 - - - - - - -
19/02:00pm 14.5 SSE 13 17 1014.8 - 0.0 - - - - - - -
19/01:30pm 14.3 SSE 8 14 1015.2 - 0.0 - - - - - - -
19/01:00pm 14.0 S 7 9 1015.6 - 0.0 - - - - - - -
19/12:30pm 13.7 S 6 10 1015.9 - 0.0 - - - - - - -
19/12:00pm 13.9 S 8 12 1016.1 - 0.0 - - - - - - -
19/11:30am 14.1 SE 8 13 1016.2 - 0.0 - - - - - - -
19/11:00am 14.3 SSE 8 11 1016.1 - 0.0 - - - - - - -
19/10:30am 14.4 SSE 9 13 1016.2 - 0.0 - - - - - - -
19/10:00am 13.5 SSE 8 11 1016.3 - 0.0 - - - - - - -
19/09:30am 13.5 SSE 8 11 1016.4 - 0.0 - - - - - - -
19/09:00am 13.6 SSE 9 13 1016.3 - 2.2 - - - - - - -
19/08:30am 13.9 SE 14 20 1016.1 - 2.2 - - - - - - -
19/08:00am 14.0 SE 13 19 1016.0 - 2.2 - - - - - - -
19/07:30am 14.3 SE 13 17 1016.0 - 2.2 - - - - - - -
19/07:00am 14.6 SE 13 18 1015.9 - 2.2 - - - - - - -
19/06:30am 14.7 SE 9 16 1015.9 - 2.2 - - - - - - -
19/06:00am 14.5 SE 8 12 1015.8 - 2.2 - - - - - - -
19/05:30am 14.5 SSE 9 12 1015.6 - 2.2 - - - - - - -
19/05:00am 14.4 SSE 10 14 1015.4 - 2.2 - - - - - - -
19/04:30am 14.4 SSE 7 13 1015.2 - 2.2 - - - - - - -
19/04:00am 14.5 SE 9 13 1015.3 - 2.2 - - - - - - -
19/03:30am 14.6 SE 8 11 1015.4 - 2.2 - - - - - - -
19/03:00am 14.7 SE 7 12 1015.6 - 2.2 - - - - - - -
19/02:30am 14.6 SE 9 14 1015.3 - 2.2 - - - - - - -
19/02:00am 14.7 SE 10 17 1015.5 - 2.2 - - - - - - -
19/01:30am 14.6 ESE 10 16 1015.8 - 2.2 - - - - - - -
19/01:00am 14.6 SE 10 13 1016.0 - 2.2 - - - - - - -
19/12:30am 14.7 ESE 12 17 1016.0 - 2.2 - - - - - - -
19/12:00am 14.8 ESE 12 22 1016.1 - 2.2 Rain - - - - - -
 
Date/Time
WST
Temp

°C
Wind Pressure Rain
since 9am
mm
Weather Cloud Vis
km
Sea
Height
m
Swell
Dir
 
Speed
knots
Gust
knots
hPa Trend Height
m
Period
s
Dir
18/11:30pm 15.0 ESE 10 15 1016.0 - 2.0 - - - - - - -
18/11:00pm 14.9 SE 9 15 1016.1 - 2.0 - - - - - - -
18/10:30pm 14.9 ESE 10 16 1016.5 - 1.8 - - - - - - -
18/10:00pm 14.8 SE 9 13 1016.5 - 1.2 - - - - - - -
18/09:30pm 14.9 SE 8 13 1016.4 - 0.0 - - - - - - -
18/09:00pm 15.0 SE 12 16 1016.1 - 0.0 - - - - - - -
18/08:30pm 15.5 SE 12 20 1016.1 - 0.0 - - - - - - -
18/08:00pm 15.2 SSE 14 20 1015.5 - 0.0 - - - - - - -
18/07:30pm 15.4 SE 15 24 1015.0 - 0.0 - - - - - - -
18/07:00pm 15.8 SE 13 21 1014.7 - 0.0 - - - - - - -
18/06:30pm 15.9 SSE 15 22 1013.9 - 0.0 - - - - - - -
18/06:00pm 17.1 SE 11 17 1014.2 - 0.0 - - - - - - -
18/05:30pm 17.5 SE 13 20 1013.8 - 0.0 - - - - - - -
18/05:00pm 18.2 SE 14 20 1013.0 - 0.0 - - - - - - -
18/04:30pm 19.1 SE 15 21 1012.5 - 0.0 - - - - - - -
18/04:00pm 19.2 SE 14 20 1012.0 - 0.0 - - - - - - -
18/03:30pm 20.1 SSE 16 25 1011.6 - 0.0 - - - - - - -
18/03:25pm 20.6 SE 15 25 1011.5 - 0.0 - - - - - - -
18/03:00pm 20.5 SE 13 20 1011.5 - 0.0 - - - - - - -
18/02:30pm 21.2 SE 15 23 1011.5 - 0.0 - - - - - - -
18/02:00pm 20.2 SSE 15 23 1011.8 - 0.0 - - - - - - -
18/01:30pm 21.4 SE 13 19 1012.1 - 0.0 - - - - - - -
18/01:00pm 20.5 SSE 14 21 1012.3 - 0.0 - - - - - - -
18/12:30pm 20.4 SE 13 21 1012.2 - 0.0 - - - - - - -
18/12:00pm 20.7 SE 16 22 1012.1 - 0.0 - - - - - - -
18/11:30am 19.8 SE 14 19 1012.3 - 0.0 - - - - - - -
18/11:00am 19.2 SSE 14 22 1012.1 - 0.0 - - - - - - -
18/10:30am 19.6 SSE 13 19 1012.1 - 0.0 - - - - - - -
18/10:00am 21.1 SE 10 15 1012.1 - 0.0 - - - - - - -
18/09:30am 20.3 SE 12 16 1011.9 - 0.0 - - - - - - -
18/09:00am 18.9 SSE 10 14 1011.5 - 0.0 - - - - - - -
18/08:30am 19.0 SE 8 11 1011.5 - 0.0 - - - - - - -
18/08:00am 17.6 SSE 7 10 1011.3 - 0.0 - - - - - - -
18/07:30am 17.7 SE 8 12 1011.2 - 0.0 - - - - - - -
18/07:00am 17.0 SE 5 8 1011.0 - 0.0 - - - - - - -
18/06:30am 16.1 SE 6 9 1010.9 - 0.0 - - - - - - -
18/06:00am 15.9 SE 6 11 1010.5 - 0.0 - - - - - - -
18/05:30am 16.1 SE 7 9 1010.0 - 0.0 - - - - - - -
18/05:00am 16.1 SSE 9 12 1009.7 - 0.0 - - - - - - -
18/04:30am 16.0 SE 7 12 1010.0 - 0.0 - - - - - - -
18/04:00am 16.3 SE 9 14 1009.9 - 0.0 - - - - - - -
18/03:30am 16.5 SE 8 13 1010.0 - 0.0 - - - - - - -
18/03:00am 16.8 SE 11 17 1010.2 - 0.0 - - - - - - -
18/02:30am 17.3 SSE 8 12 1010.4 - 0.0 - - - - - - -
18/02:00am 17.8 SSE 5 8 1010.4 - 0.0 - - - - - - -
18/01:30am 17.6 SE 6 9 1011.1 - 0.0 - - - - - - -
18/01:00am 18.0 SE 9 13 1011.5 - 0.0 - - - - - - -
18/12:30am 18.2 S 9 13 1011.4 - 0.0 - - - - - - -
18/12:00am 18.0 S 9 13 1011.2 - 0.0 - - - - - - -
 
Date/Time
WST
Temp

°C
Wind Pressure Rain
since 9am
mm
Weather Cloud Vis
km
Sea
Height
m
Swell
Dir
 
Speed
knots
Gust
knots
hPa Trend Height
m
Period
s
Dir
17/11:30pm 18.3 SSE 7 11 1011.7 - 0.0 - - - - - - -
17/11:00pm 18.2 SE 10 12 1011.4 - 0.0 - - - - - - -
17/10:30pm 18.6 S 11 17 1011.2 - 0.0 - - - - - - -
17/10:00pm 18.3 SSE 10 16 1010.9 - 0.0 - - - - - - -
17/09:30pm 18.4 S 10 14 1011.2 - 0.0 - - - - - - -
17/09:00pm 18.6 S 9 16 1011.8 - 0.0 - - - - - - -
17/08:30pm 18.5 S 9 15 1012.3 - 0.0 - - - - - - -
17/08:00pm 18.6 S 9 13 1012.4 - 0.0 - - - - - - -
17/07:30pm 18.6 S 9 13 1012.5 - 0.0 - - - - - - -
17/07:00pm 18.8 S 8 13 1012.5 - 0.0 - - - - - - -
17/06:30pm 19.0 S 8 11 1012.5 - 0.0 - - - - - - -
17/06:00pm 19.0 S 7 10 1012.7 - 0.0 - - - - - - -

Other Formats:

Comma delimited format used in spreadsheet applications
http://www.bom.gov.au/fwo/IDW60701/IDW60701.94605.axf

JavaScript Object Notation format (JSON) in row-major order
http://www.bom.gov.au/fwo/IDW60701/IDW60701.94605.json